sensor_id;sensor_type;location;lat;lon;timestamp;P1;durP1;ratioP1;P2;durP2;ratioP2
12437;SDS011;6283;51.330;12.374;2023-09-30T00:01:26;2.55;;;1.55;;
12437;SDS011;6283;51.330;12.374;2023-09-30T00:03:52;4.68;;;1.35;;
12437;SDS011;6283;51.330;12.374;2023-09-30T00:06:18;1.98;;;1.40;;
12437;SDS011;6283;51.330;12.374;2023-09-30T00:08:44;3.55;;;1.20;;
12437;SDS011;6283;51.330;12.374;2023-09-30T00:11:10;1.73;;;1.17;;
12437;SDS011;6283;51.330;12.374;2023-09-30T00:13:36;1.60;;;1.20;;
12437;SDS011;6283;51.330;12.374;2023-09-30T00:16:01;4.43;;;1.40;;
12437;SDS011;6283;51.330;12.374;2023-09-30T00:18:27;4.25;;;1.40;;
12437;SDS011;6283;51.330;12.374;2023-09-30T00:20:53;3.63;;;1.50;;
12437;SDS011;6283;51.330;12.374;2023-09-30T00:23:18;3.65;;;1.25;;
12437;SDS011;6283;51.330;12.374;2023-09-30T00:25:46;3.15;;;1.90;;
12437;SDS011;6283;51.330;12.374;2023-09-30T00:28:11;5.82;;;1.92;;
12437;SDS011;6283;51.330;12.374;2023-09-30T00:30:37;4.65;;;1.55;;
12437;SDS011;6283;51.330;12.374;2023-09-30T00:33:03;4.28;;;1.88;;
12437;SDS011;6283;51.330;12.374;2023-09-30T00:35:30;3.60;;;1.50;;
12437;SDS011;6283;51.330;12.374;2023-09-30T00:37:57;3.20;;;1.42;;
12437;SDS011;6283;51.330;12.374;2023-09-30T00:40:23;2.22;;;1.58;;
12437;SDS011;6283;51.330;12.374;2023-09-30T00:42:48;5.28;;;1.83;;
12437;SDS011;6283;51.330;12.374;2023-09-30T00:45:14;4.88;;;1.65;;
12437;SDS011;6283;51.330;12.374;2023-09-30T00:47:40;3.15;;;1.33;;
12437;SDS011;6283;51.330;12.374;2023-09-30T00:50:06;2.88;;;1.60;;
12437;SDS011;6283;51.330;12.374;2023-09-30T00:52:33;6.32;;;1.88;;
12437;SDS011;6283;51.330;12.374;2023-09-30T00:55:01;3.25;;;1.92;;
12437;SDS011;6283;51.330;12.374;2023-09-30T00:57:27;5.22;;;2.00;;
12437;SDS011;6283;51.330;12.374;2023-09-30T00:59:55;3.95;;;1.80;;
12437;SDS011;6283;51.330;12.374;2023-09-30T01:02:22;6.35;;;1.85;;
12437;SDS011;6283;51.330;12.374;2023-09-30T01:04:48;4.85;;;1.85;;
12437;SDS011;6283;51.330;12.374;2023-09-30T01:07:14;6.93;;;1.60;;
12437;SDS011;6283;51.330;12.374;2023-09-30T01:09:40;5.53;;;1.80;;
12437;SDS011;6283;51.330;12.374;2023-09-30T01:12:06;8.13;;;1.90;;
12437;SDS011;6283;51.330;12.374;2023-09-30T01:14:33;4.72;;;1.75;;
12437;SDS011;6283;51.330;12.374;2023-09-30T01:17:00;4.88;;;1.90;;
12437;SDS011;6283;51.330;12.374;2023-09-30T01:19:26;5.07;;;2.15;;
12437;SDS011;6283;51.330;12.374;2023-09-30T01:21:55;3.60;;;2.05;;
12437;SDS011;6283;51.330;12.374;2023-09-30T01:24:29;1.60;;;1.50;;
12437;SDS011;6283;51.330;12.374;2023-09-30T01:26:55;4.25;;;1.92;;
12437;SDS011;6283;51.330;12.374;2023-09-30T01:29:21;4.95;;;1.90;;
12437;SDS011;6283;51.330;12.374;2023-09-30T01:31:47;7.32;;;2.08;;
12437;SDS011;6283;51.330;12.374;2023-09-30T01:34:14;4.47;;;2.35;;
12437;SDS011;6283;51.330;12.374;2023-09-30T01:36:41;3.83;;;1.77;;
12437;SDS011;6283;51.330;12.374;2023-09-30T01:39:08;7.78;;;2.58;;
12437;SDS011;6283;51.330;12.374;2023-09-30T01:41:35;6.68;;;2.35;;
12437;SDS011;6283;51.330;12.374;2023-09-30T01:44:05;4.57;;;2.45;;
12437;SDS011;6283;51.330;12.374;2023-09-30T01:46:30;5.63;;;1.70;;
12437;SDS011;6283;51.330;12.374;2023-09-30T01:48:56;5.95;;;2.53;;
12437;SDS011;6283;51.330;12.374;2023-09-30T01:51:22;3.90;;;2.05;;
12437;SDS011;6283;51.330;12.374;2023-09-30T01:53:48;7.78;;;2.60;;
12437;SDS011;6283;51.330;12.374;2023-09-30T01:56:14;5.22;;;2.75;;
12437;SDS011;6283;51.330;12.374;2023-09-30T01:58:39;5.32;;;2.50;;
12437;SDS011;6283;51.330;12.374;2023-09-30T02:01:05;7.07;;;2.10;;
12437;SDS011;6283;51.330;12.374;2023-09-30T02:03:31;4.95;;;2.20;;
12437;SDS011;6283;51.330;12.374;2023-09-30T02:05:57;4.65;;;2.35;;
12437;SDS011;6283;51.330;12.374;2023-09-30T02:08:23;5.45;;;2.50;;
12437;SDS011;6283;51.330;12.374;2023-09-30T02:10:49;6.63;;;2.70;;
12437;SDS011;6283;51.330;12.374;2023-09-30T02:13:16;3.63;;;2.58;;
12437;SDS011;6283;51.330;12.374;2023-09-30T02:15:42;3.60;;;2.03;;
12437;SDS011;6283;51.330;12.374;2023-09-30T02:18:08;7.55;;;2.58;;
12437;SDS011;6283;51.330;12.374;2023-09-30T02:20:35;4.55;;;2.53;;
12437;SDS011;6283;51.330;12.374;2023-09-30T02:23:08;8.27;;;2.35;;
12437;SDS011;6283;51.330;12.374;2023-09-30T02:25:36;6.03;;;2.65;;
12437;SDS011;6283;51.330;12.374;2023-09-30T02:28:02;6.13;;;2.50;;
12437;SDS011;6283;51.330;12.374;2023-09-30T02:30:28;5.50;;;3.15;;
12437;SDS011;6283;51.330;12.374;2023-09-30T02:32:55;7.18;;;2.15;;
12437;SDS011;6283;51.330;12.374;2023-09-30T02:35:21;8.00;;;2.67;;
12437;SDS011;6283;51.330;12.374;2023-09-30T02:37:47;4.82;;;2.78;;
12437;SDS011;6283;51.330;12.374;2023-09-30T02:40:12;5.25;;;2.50;;
12437;SDS011;6283;51.330;12.374;2023-09-30T02:42:40;6.60;;;2.78;;
12437;SDS011;6283;51.330;12.374;2023-09-30T02:45:06;6.03;;;2.78;;
12437;SDS011;6283;51.330;12.374;2023-09-30T02:47:35;6.55;;;2.58;;
12437;SDS011;6283;51.330;12.374;2023-09-30T02:50:02;7.07;;;2.38;;
12437;SDS011;6283;51.330;12.374;2023-09-30T02:52:29;6.20;;;2.83;;
12437;SDS011;6283;51.330;12.374;2023-09-30T02:54:55;5.35;;;2.72;;
12437;SDS011;6283;51.330;12.374;2023-09-30T02:57:22;8.27;;;2.85;;
12437;SDS011;6283;51.330;12.374;2023-09-30T02:59:48;7.57;;;2.80;;
12437;SDS011;6283;51.330;12.374;2023-09-30T03:02:14;4.72;;;2.45;;
12437;SDS011;6283;51.330;12.374;2023-09-30T03:04:41;9.40;;;2.78;;
12437;SDS011;6283;51.330;12.374;2023-09-30T03:07:07;7.85;;;2.85;;
12437;SDS011;6283;51.330;12.374;2023-09-30T03:09:33;6.45;;;3.00;;
12437;SDS011;6283;51.330;12.374;2023-09-30T03:11:59;5.05;;;2.85;;
12437;SDS011;6283;51.330;12.374;2023-09-30T03:14:25;4.55;;;3.20;;
12437;SDS011;6283;51.330;12.374;2023-09-30T03:16:50;6.55;;;3.53;;
12437;SDS011;6283;51.330;12.374;2023-09-30T03:19:17;5.80;;;3.58;;
12437;SDS011;6283;51.330;12.374;2023-09-30T03:21:42;5.63;;;3.17;;
12437;SDS011;6283;51.330;12.374;2023-09-30T03:24:08;7.90;;;4.05;;
12437;SDS011;6283;51.330;12.374;2023-09-30T03:26:34;7.87;;;3.97;;
12437;SDS011;6283;51.330;12.374;2023-09-30T03:29:00;10.30;;;3.53;;
12437;SDS011;6283;51.330;12.374;2023-09-30T03:31:26;6.90;;;3.63;;
12437;SDS011;6283;51.330;12.374;2023-09-30T03:33:52;10.13;;;4.03;;
12437;SDS011;6283;51.330;12.374;2023-09-30T03:36:22;10.57;;;3.88;;
12437;SDS011;6283;51.330;12.374;2023-09-30T03:38:51;9.40;;;4.10;;
12437;SDS011;6283;51.330;12.374;2023-09-30T03:41:20;5.60;;;3.20;;
12437;SDS011;6283;51.330;12.374;2023-09-30T03:43:45;5.87;;;3.50;;
12437;SDS011;6283;51.330;12.374;2023-09-30T03:46:12;7.43;;;3.87;;
12437;SDS011;6283;51.330;12.374;2023-09-30T03:48:38;11.53;;;4.03;;
12437;SDS011;6283;51.330;12.374;2023-09-30T03:51:08;8.27;;;3.90;;
12437;SDS011;6283;51.330;12.374;2023-09-30T03:53:34;7.03;;;3.13;;
12437;SDS011;6283;51.330;12.374;2023-09-30T03:56:00;8.30;;;4.53;;
12437;SDS011;6283;51.330;12.374;2023-09-30T03:58:27;11.30;;;3.93;;
12437;SDS011;6283;51.330;12.374;2023-09-30T04:00:53;7.57;;;3.53;;
12437;SDS011;6283;51.330;12.374;2023-09-30T04:03:19;7.87;;;3.17;;
12437;SDS011;6283;51.330;12.374;2023-09-30T04:05:45;11.13;;;3.83;;
12437;SDS011;6283;51.330;12.374;2023-09-30T04:08:12;9.33;;;3.70;;
12437;SDS011;6283;51.330;12.374;2023-09-30T04:10:40;10.05;;;4.05;;
12437;SDS011;6283;51.330;12.374;2023-09-30T04:13:05;7.43;;;3.03;;
12437;SDS011;6283;51.330;12.374;2023-09-30T04:15:31;7.63;;;3.47;;
12437;SDS011;6283;51.330;12.374;2023-09-30T04:17:57;9.43;;;3.87;;
12437;SDS011;6283;51.330;12.374;2023-09-30T04:20:22;7.90;;;3.60;;
12437;SDS011;6283;51.330;12.374;2023-09-30T04:22:51;5.83;;;2.90;;
12437;SDS011;6283;51.330;12.374;2023-09-30T04:25:22;10.83;;;3.00;;
12437;SDS011;6283;51.330;12.374;2023-09-30T04:27:51;8.97;;;2.87;;
12437;SDS011;6283;51.330;12.374;2023-09-30T04:30:17;7.53;;;2.93;;
12437;SDS011;6283;51.330;12.374;2023-09-30T04:32:43;9.20;;;3.13;;
12437;SDS011;6283;51.330;12.374;2023-09-30T04:35:09;8.10;;;3.40;;
12437;SDS011;6283;51.330;12.374;2023-09-30T04:37:35;5.60;;;3.03;;
12437;SDS011;6283;51.330;12.374;2023-09-30T04:40:05;8.70;;;3.20;;
12437;SDS011;6283;51.330;12.374;2023-09-30T04:42:40;5.57;;;3.20;;
12437;SDS011;6283;51.330;12.374;2023-09-30T04:45:09;9.53;;;3.33;;
12437;SDS011;6283;51.330;12.374;2023-09-30T04:47:35;12.10;;;3.10;;
12437;SDS011;6283;51.330;12.374;2023-09-30T04:50:04;6.70;;;3.47;;
12437;SDS011;6283;51.330;12.374;2023-09-30T04:52:32;8.77;;;3.33;;
12437;SDS011;6283;51.330;12.374;2023-09-30T04:54:58;8.53;;;2.90;;
12437;SDS011;6283;51.330;12.374;2023-09-30T04:57:25;8.70;;;3.50;;
12437;SDS011;6283;51.330;12.374;2023-09-30T04:59:51;5.27;;;3.00;;
12437;SDS011;6283;51.330;12.374;2023-09-30T05:02:16;8.30;;;3.20;;
12437;SDS011;6283;51.330;12.374;2023-09-30T05:04:42;7.77;;;3.07;;
12437;SDS011;6283;51.330;12.374;2023-09-30T05:07:08;4.60;;;2.67;;
12437;SDS011;6283;51.330;12.374;2023-09-30T05:09:34;8.80;;;3.07;;
12437;SDS011;6283;51.330;12.374;2023-09-30T05:11:59;6.80;;;3.20;;
12437;SDS011;6283;51.330;12.374;2023-09-30T05:14:25;9.60;;;3.50;;
12437;SDS011;6283;51.330;12.374;2023-09-30T05:16:53;8.00;;;2.73;;
12437;SDS011;6283;51.330;12.374;2023-09-30T05:19:19;7.97;;;2.77;;
12437;SDS011;6283;51.330;12.374;2023-09-30T05:21:45;7.93;;;3.27;;
12437;SDS011;6283;51.330;12.374;2023-09-30T05:24:12;7.80;;;2.80;;
12437;SDS011;6283;51.330;12.374;2023-09-30T05:26:38;7.17;;;2.80;;
12437;SDS011;6283;51.330;12.374;2023-09-30T05:29:03;12.43;;;3.40;;
12437;SDS011;6283;51.330;12.374;2023-09-30T05:31:30;12.03;;;3.90;;
12437;SDS011;6283;51.330;12.374;2023-09-30T05:33:56;6.97;;;3.57;;
12437;SDS011;6283;51.330;12.374;2023-09-30T05:36:21;8.30;;;3.50;;
12437;SDS011;6283;51.330;12.374;2023-09-30T05:38:47;11.23;;;4.20;;
12437;SDS011;6283;51.330;12.374;2023-09-30T05:41:16;8.50;;;3.53;;
12437;SDS011;6283;51.330;12.374;2023-09-30T05:43:42;10.47;;;4.57;;
12437;SDS011;6283;51.330;12.374;2023-09-30T05:46:08;9.60;;;3.83;;
12437;SDS011;6283;51.330;12.374;2023-09-30T05:48:34;9.10;;;4.30;;
12437;SDS011;6283;51.330;12.374;2023-09-30T05:51:00;10.27;;;4.20;;
12437;SDS011;6283;51.330;12.374;2023-09-30T05:53:27;8.73;;;3.63;;
12437;SDS011;6283;51.330;12.374;2023-09-30T05:55:53;6.50;;;4.17;;
12437;SDS011;6283;51.330;12.374;2023-09-30T05:58:19;8.30;;;4.73;;
12437;SDS011;6283;51.330;12.374;2023-09-30T06:00:45;8.60;;;3.60;;
12437;SDS011;6283;51.330;12.374;2023-09-30T06:03:11;10.63;;;3.43;;
12437;SDS011;6283;51.330;12.374;2023-09-30T06:05:40;7.77;;;3.10;;
12437;SDS011;6283;51.330;12.374;2023-09-30T06:08:07;8.30;;;3.33;;
12437;SDS011;6283;51.330;12.374;2023-09-30T06:10:35;8.50;;;3.37;;
12437;SDS011;6283;51.330;12.374;2023-09-30T06:13:03;11.67;;;3.27;;
12437;SDS011;6283;51.330;12.374;2023-09-30T06:15:29;9.37;;;3.23;;
12437;SDS011;6283;51.330;12.374;2023-09-30T06:17:56;7.40;;;2.90;;
12437;SDS011;6283;51.330;12.374;2023-09-30T06:20:23;5.70;;;2.73;;
12437;SDS011;6283;51.330;12.374;2023-09-30T06:22:51;10.23;;;3.67;;
12437;SDS011;6283;51.330;12.374;2023-09-30T06:25:19;6.00;;;2.83;;
12437;SDS011;6283;51.330;12.374;2023-09-30T06:27:45;7.47;;;3.00;;
12437;SDS011;6283;51.330;12.374;2023-09-30T06:30:12;10.40;;;3.70;;
12437;SDS011;6283;51.330;12.374;2023-09-30T06:32:41;6.83;;;3.23;;
12437;SDS011;6283;51.330;12.374;2023-09-30T06:35:07;10.93;;;3.07;;
12437;SDS011;6283;51.330;12.374;2023-09-30T06:37:35;9.50;;;3.30;;
12437;SDS011;6283;51.330;12.374;2023-09-30T06:40:03;7.67;;;3.03;;
12437;SDS011;6283;51.330;12.374;2023-09-30T06:42:30;11.53;;;2.80;;
12437;SDS011;6283;51.330;12.374;2023-09-30T06:44:56;8.87;;;2.60;;
12437;SDS011;6283;51.330;12.374;2023-09-30T06:47:22;8.13;;;3.10;;
12437;SDS011;6283;51.330;12.374;2023-09-30T06:49:49;10.33;;;2.70;;
12437;SDS011;6283;51.330;12.374;2023-09-30T06:52:14;7.57;;;2.70;;
12437;SDS011;6283;51.330;12.374;2023-09-30T06:54:40;7.53;;;3.27;;
12437;SDS011;6283;51.330;12.374;2023-09-30T06:57:06;8.03;;;3.00;;
12437;SDS011;6283;51.330;12.374;2023-09-30T06:59:33;8.20;;;2.97;;
12437;SDS011;6283;51.330;12.374;2023-09-30T07:02:02;4.40;;;2.93;;
12437;SDS011;6283;51.330;12.374;2023-09-30T07:04:28;7.93;;;2.57;;
12437;SDS011;6283;51.330;12.374;2023-09-30T07:06:54;6.67;;;2.70;;
12437;SDS011;6283;51.330;12.374;2023-09-30T07:09:20;6.57;;;2.90;;
12437;SDS011;6283;51.330;12.374;2023-09-30T07:11:46;6.87;;;2.47;;
12437;SDS011;6283;51.330;12.374;2023-09-30T07:14:12;9.85;;;2.72;;
12437;SDS011;6283;51.330;12.374;2023-09-30T07:16:37;6.50;;;2.50;;
12437;SDS011;6283;51.330;12.374;2023-09-30T07:19:05;8.87;;;2.90;;
12437;SDS011;6283;51.330;12.374;2023-09-30T07:21:30;5.37;;;2.30;;
12437;SDS011;6283;51.330;12.374;2023-09-30T07:23:56;3.90;;;2.13;;
12437;SDS011;6283;51.330;12.374;2023-09-30T07:26:25;6.93;;;2.40;;
12437;SDS011;6283;51.330;12.374;2023-09-30T07:28:51;4.68;;;2.20;;
12437;SDS011;6283;51.330;12.374;2023-09-30T07:31:19;5.95;;;2.20;;
12437;SDS011;6283;51.330;12.374;2023-09-30T07:33:45;6.70;;;2.55;;
12437;SDS011;6283;51.330;12.374;2023-09-30T07:36:10;3.50;;;2.00;;
12437;SDS011;6283;51.330;12.374;2023-09-30T07:38:38;7.97;;;2.50;;
12437;SDS011;6283;51.330;12.374;2023-09-30T07:41:04;4.00;;;2.30;;
12437;SDS011;6283;51.330;12.374;2023-09-30T07:43:30;8.35;;;2.50;;
12437;SDS011;6283;51.330;12.374;2023-09-30T07:45:56;6.90;;;2.40;;
12437;SDS011;6283;51.330;12.374;2023-09-30T07:48:21;5.53;;;2.55;;
12437;SDS011;6283;51.330;12.374;2023-09-30T07:50:47;6.70;;;2.50;;
12437;SDS011;6283;51.330;12.374;2023-09-30T07:53:13;5.07;;;2.38;;
12437;SDS011;6283;51.330;12.374;2023-09-30T07:55:38;7.80;;;2.75;;
12437;SDS011;6283;51.330;12.374;2023-09-30T07:58:04;8.20;;;2.30;;
12437;SDS011;6283;51.330;12.374;2023-09-30T08:00:30;5.50;;;2.58;;
12437;SDS011;6283;51.330;12.374;2023-09-30T08:02:58;8.80;;;2.38;;
12437;SDS011;6283;51.330;12.374;2023-09-30T08:05:25;5.68;;;2.38;;
12437;SDS011;6283;51.330;12.374;2023-09-30T08:07:51;9.60;;;3.30;;
12437;SDS011;6283;51.330;12.374;2023-09-30T08:10:17;6.07;;;2.28;;
12437;SDS011;6283;51.330;12.374;2023-09-30T08:12:43;6.07;;;2.30;;
12437;SDS011;6283;51.330;12.374;2023-09-30T08:15:13;8.23;;;2.90;;
12437;SDS011;6283;51.330;12.374;2023-09-30T08:17:39;5.78;;;2.53;;
12437;SDS011;6283;51.330;12.374;2023-09-30T08:20:08;6.47;;;2.42;;
12437;SDS011;6283;51.330;12.374;2023-09-30T08:22:34;7.35;;;2.17;;
12437;SDS011;6283;51.330;12.374;2023-09-30T08:25:00;7.85;;;2.30;;
12437;SDS011;6283;51.330;12.374;2023-09-30T08:27:26;5.53;;;2.22;;
12437;SDS011;6283;51.330;12.374;2023-09-30T08:29:51;6.38;;;2.35;;
12437;SDS011;6283;51.330;12.374;2023-09-30T08:32:17;6.68;;;2.30;;
12437;SDS011;6283;51.330;12.374;2023-09-30T08:34:43;5.35;;;1.98;;
12437;SDS011;6283;51.330;12.374;2023-09-30T08:37:09;9.02;;;3.03;;
12437;SDS011;6283;51.330;12.374;2023-09-30T08:39:38;4.75;;;1.95;;
12437;SDS011;6283;51.330;12.374;2023-09-30T08:42:06;8.73;;;2.45;;
12437;SDS011;6283;51.330;12.374;2023-09-30T08:44:36;6.15;;;2.10;;
12437;SDS011;6283;51.330;12.374;2023-09-30T08:47:04;6.70;;;2.58;;
12437;SDS011;6283;51.330;12.374;2023-09-30T08:49:33;6.18;;;2.35;;
12437;SDS011;6283;51.330;12.374;2023-09-30T08:52:02;4.10;;;1.70;;
12437;SDS011;6283;51.330;12.374;2023-09-30T08:54:30;4.75;;;2.00;;
12437;SDS011;6283;51.330;12.374;2023-09-30T08:56:56;6.28;;;2.28;;
12437;SDS011;6283;51.330;12.374;2023-09-30T08:59:24;6.43;;;2.10;;
12437;SDS011;6283;51.330;12.374;2023-09-30T09:01:50;11.55;;;2.17;;
12437;SDS011;6283;51.330;12.374;2023-09-30T09:04:17;3.75;;;1.83;;
12437;SDS011;6283;51.330;12.374;2023-09-30T09:06:42;7.85;;;2.80;;
12437;SDS011;6283;51.330;12.374;2023-09-30T09:11:47;10.98;;;3.38;;
12437;SDS011;6283;51.330;12.374;2023-09-30T09:14:13;6.47;;;2.33;;
12437;SDS011;6283;51.330;12.374;2023-09-30T09:16:52;7.15;;;2.47;;
12437;SDS011;6283;51.330;12.374;2023-09-30T09:19:19;8.90;;;2.42;;
12437;SDS011;6283;51.330;12.374;2023-09-30T09:22:02;4.53;;;2.10;;
12437;SDS011;6283;51.330;12.374;2023-09-30T09:24:38;8.75;;;2.08;;
12437;SDS011;6283;51.330;12.374;2023-09-30T09:27:10;6.97;;;2.47;;
12437;SDS011;6283;51.330;12.374;2023-09-30T09:29:37;6.40;;;2.45;;
12437;SDS011;6283;51.330;12.374;2023-09-30T09:32:10;5.53;;;2.05;;
12437;SDS011;6283;51.330;12.374;2023-09-30T09:34:40;4.35;;;1.80;;
12437;SDS011;6283;51.330;12.374;2023-09-30T09:37:15;6.20;;;1.77;;
12437;SDS011;6283;51.330;12.374;2023-09-30T09:42:24;7.57;;;1.98;;
12437;SDS011;6283;51.330;12.374;2023-09-30T09:44:52;4.88;;;1.90;;
12437;SDS011;6283;51.330;12.374;2023-09-30T09:47:20;6.43;;;1.80;;
12437;SDS011;6283;51.330;12.374;2023-09-30T09:49:47;5.55;;;2.47;;
12437;SDS011;6283;51.330;12.374;2023-09-30T09:52:14;5.75;;;2.08;;
12437;SDS011;6283;51.330;12.374;2023-09-30T09:54:43;5.45;;;1.70;;
12437;SDS011;6283;51.330;12.374;2023-09-30T09:57:11;4.13;;;2.25;;
12437;SDS011;6283;51.330;12.374;2023-09-30T09:59:37;8.85;;;2.00;;
12437;SDS011;6283;51.330;12.374;2023-09-30T10:02:11;7.78;;;2.45;;
12437;SDS011;6283;51.330;12.374;2023-09-30T10:04:39;7.30;;;2.13;;
12437;SDS011;6283;51.330;12.374;2023-09-30T10:07:16;6.55;;;2.10;;
12437;SDS011;6283;51.330;12.374;2023-09-30T10:09:47;6.50;;;2.35;;
12437;SDS011;6283;51.330;12.374;2023-09-30T10:12:17;4.97;;;1.65;;
12437;SDS011;6283;51.330;12.374;2023-09-30T10:14:44;7.15;;;2.40;;
12437;SDS011;6283;51.330;12.374;2023-09-30T10:17:09;7.50;;;2.08;;
12437;SDS011;6283;51.330;12.374;2023-09-30T10:19:35;5.53;;;2.10;;
12437;SDS011;6283;51.330;12.374;2023-09-30T10:24:45;4.28;;;1.80;;
12437;SDS011;6283;51.330;12.374;2023-09-30T10:27:30;4.95;;;2.10;;
12437;SDS011;6283;51.330;12.374;2023-09-30T10:37:44;6.22;;;1.75;;
12437;SDS011;6283;51.330;12.374;2023-09-30T10:40:16;3.22;;;1.45;;
12437;SDS011;6283;51.330;12.374;2023-09-30T10:42:56;4.65;;;1.65;;
12437;SDS011;6283;51.330;12.374;2023-09-30T10:50:53;6.57;;;2.00;;
12437;SDS011;6283;51.330;12.374;2023-09-30T10:53:21;5.68;;;1.40;;
12437;SDS011;6283;51.330;12.374;2023-09-30T10:55:53;5.43;;;1.58;;
12437;SDS011;6283;51.330;12.374;2023-09-30T10:58:21;4.72;;;1.88;;
12437;SDS011;6283;51.330;12.374;2023-09-30T11:00:53;5.88;;;1.98;;
12437;SDS011;6283;51.330;12.374;2023-09-30T11:03:20;6.05;;;1.90;;
12437;SDS011;6283;51.330;12.374;2023-09-30T11:05:49;4.95;;;1.55;;
12437;SDS011;6283;51.330;12.374;2023-09-30T11:08:19;3.22;;;1.75;;
12437;SDS011;6283;51.330;12.374;2023-09-30T11:10:50;7.90;;;1.80;;
12437;SDS011;6283;51.330;12.374;2023-09-30T11:13:19;4.43;;;1.63;;
12437;SDS011;6283;51.330;12.374;2023-09-30T11:15:45;3.88;;;1.40;;
12437;SDS011;6283;51.330;12.374;2023-09-30T11:18:15;3.88;;;2.17;;
12437;SDS011;6283;51.330;12.374;2023-09-30T11:20:42;3.83;;;1.40;;
12437;SDS011;6283;51.330;12.374;2023-09-30T11:23:09;4.53;;;1.70;;
12437;SDS011;6283;51.330;12.374;2023-09-30T11:25:39;6.10;;;2.15;;
12437;SDS011;6283;51.330;12.374;2023-09-30T11:28:18;5.93;;;1.83;;
12437;SDS011;6283;51.330;12.374;2023-09-30T11:33:22;4.82;;;3.13;;
12437;SDS011;6283;51.330;12.374;2023-09-30T11:36:22;7.43;;;2.25;;
12437;SDS011;6283;51.330;12.374;2023-09-30T11:38:44;4.13;;;1.63;;
12437;SDS011;6283;51.330;12.374;2023-09-30T11:41:11;4.15;;;2.00;;
12437;SDS011;6283;51.330;12.374;2023-09-30T11:43:37;5.80;;;2.00;;
12437;SDS011;6283;51.330;12.374;2023-09-30T11:46:10;2.45;;;1.42;;
12437;SDS011;6283;51.330;12.374;2023-09-30T11:48:39;7.72;;;1.70;;
12437;SDS011;6283;51.330;12.374;2023-09-30T11:51:20;4.28;;;1.60;;
12437;SDS011;6283;51.330;12.374;2023-09-30T11:53:49;2.78;;;1.60;;
12437;SDS011;6283;51.330;12.374;2023-09-30T11:56:15;5.00;;;1.75;;
12437;SDS011;6283;51.330;12.374;2023-09-30T11:58:41;6.35;;;1.83;;
12437;SDS011;6283;51.330;12.374;2023-09-30T12:01:07;2.80;;;1.58;;
12437;SDS011;6283;51.330;12.374;2023-09-30T12:03:35;6.63;;;1.85;;
12437;SDS011;6283;51.330;12.374;2023-09-30T12:06:04;5.15;;;1.77;;
12437;SDS011;6283;51.330;12.374;2023-09-30T12:08:33;6.07;;;1.80;;
12437;SDS011;6283;51.330;12.374;2023-09-30T12:10:59;6.22;;;2.13;;
12437;SDS011;6283;51.330;12.374;2023-09-30T12:13:25;6.90;;;2.10;;
12437;SDS011;6283;51.330;12.374;2023-09-30T12:15:51;3.13;;;1.58;;
12437;SDS011;6283;51.330;12.374;2023-09-30T12:18:18;5.75;;;1.50;;
12437;SDS011;6283;51.330;12.374;2023-09-30T12:20:48;6.82;;;1.92;;
12437;SDS011;6283;51.330;12.374;2023-09-30T12:23:18;4.05;;;1.90;;
12437;SDS011;6283;51.330;12.374;2023-09-30T12:25:45;3.78;;;1.73;;
12437;SDS011;6283;51.330;12.374;2023-09-30T12:28:11;4.82;;;1.50;;
12437;SDS011;6283;51.330;12.374;2023-09-30T12:30:39;3.25;;;1.40;;
12437;SDS011;6283;51.330;12.374;2023-09-30T12:33:05;5.63;;;1.52;;
12437;SDS011;6283;51.330;12.374;2023-09-30T12:35:31;2.30;;;1.35;;
12437;SDS011;6283;51.330;12.374;2023-09-30T12:37:58;4.18;;;1.85;;
12437;SDS011;6283;51.330;12.374;2023-09-30T12:40:23;3.47;;;1.70;;
12437;SDS011;6283;51.330;12.374;2023-09-30T12:42:49;5.07;;;2.33;;
12437;SDS011;6283;51.330;12.374;2023-09-30T12:45:15;3.30;;;1.58;;
12437;SDS011;6283;51.330;12.374;2023-09-30T12:47:42;3.25;;;1.42;;
12437;SDS011;6283;51.330;12.374;2023-09-30T12:50:08;5.18;;;1.70;;
12437;SDS011;6283;51.330;12.374;2023-09-30T12:52:34;6.68;;;2.10;;
12437;SDS011;6283;51.330;12.374;2023-09-30T12:55:00;4.97;;;1.90;;
12437;SDS011;6283;51.330;12.374;2023-09-30T12:57:25;4.10;;;1.75;;
12437;SDS011;6283;51.330;12.374;2023-09-30T12:59:51;3.60;;;1.70;;
12437;SDS011;6283;51.330;12.374;2023-09-30T13:02:18;3.63;;;1.63;;
12437;SDS011;6283;51.330;12.374;2023-09-30T13:04:44;4.68;;;1.83;;
12437;SDS011;6283;51.330;12.374;2023-09-30T13:07:11;5.20;;;1.92;;
12437;SDS011;6283;51.330;12.374;2023-09-30T13:09:38;4.53;;;2.08;;
12437;SDS011;6283;51.330;12.374;2023-09-30T13:12:04;3.90;;;1.75;;
12437;SDS011;6283;51.330;12.374;2023-09-30T13:14:30;6.57;;;1.95;;
12437;SDS011;6283;51.330;12.374;2023-09-30T13:16:56;4.63;;;1.77;;
12437;SDS011;6283;51.330;12.374;2023-09-30T13:19:21;4.00;;;1.92;;
12437;SDS011;6283;51.330;12.374;2023-09-30T13:21:48;4.20;;;1.77;;
12437;SDS011;6283;51.330;12.374;2023-09-30T13:24:15;4.70;;;2.00;;
12437;SDS011;6283;51.330;12.374;2023-09-30T13:26:41;6.10;;;1.80;;
12437;SDS011;6283;51.330;12.374;2023-09-30T13:29:06;3.42;;;1.88;;
12437;SDS011;6283;51.330;12.374;2023-09-30T13:31:35;5.00;;;1.98;;
12437;SDS011;6283;51.330;12.374;2023-09-30T13:34:04;5.78;;;1.88;;
12437;SDS011;6283;51.330;12.374;2023-09-30T13:36:30;3.17;;;1.75;;
12437;SDS011;6283;51.330;12.374;2023-09-30T13:38:56;3.80;;;1.50;;
12437;SDS011;6283;51.330;12.374;2023-09-30T13:41:21;4.35;;;1.80;;
12437;SDS011;6283;51.330;12.374;2023-09-30T13:43:47;3.95;;;1.85;;
12437;SDS011;6283;51.330;12.374;2023-09-30T13:46:12;6.18;;;1.80;;
12437;SDS011;6283;51.330;12.374;2023-09-30T13:48:38;4.85;;;1.90;;
12437;SDS011;6283;51.330;12.374;2023-09-30T13:51:07;5.65;;;1.70;;
12437;SDS011;6283;51.330;12.374;2023-09-30T13:53:34;3.75;;;1.90;;
12437;SDS011;6283;51.330;12.374;2023-09-30T13:56:00;3.33;;;1.60;;
12437;SDS011;6283;51.330;12.374;2023-09-30T13:58:25;3.80;;;1.75;;
12437;SDS011;6283;51.330;12.374;2023-09-30T14:00:52;5.18;;;1.80;;
12437;SDS011;6283;51.330;12.374;2023-09-30T14:03:18;3.25;;;1.77;;
12437;SDS011;6283;51.330;12.374;2023-09-30T14:05:44;3.25;;;1.60;;
12437;SDS011;6283;51.330;12.374;2023-09-30T14:08:10;2.78;;;1.45;;
12437;SDS011;6283;51.330;12.374;2023-09-30T14:10:36;3.92;;;1.83;;
12437;SDS011;6283;51.330;12.374;2023-09-30T14:13:02;3.85;;;1.73;;
12437;SDS011;6283;51.330;12.374;2023-09-30T14:15:28;4.22;;;1.85;;
12437;SDS011;6283;51.330;12.374;2023-09-30T14:17:56;4.40;;;1.95;;
12437;SDS011;6283;51.330;12.374;2023-09-30T14:20:23;3.55;;;1.70;;
12437;SDS011;6283;51.330;12.374;2023-09-30T14:22:50;5.70;;;2.15;;
12437;SDS011;6283;51.330;12.374;2023-09-30T14:25:16;4.00;;;1.60;;
12437;SDS011;6283;51.330;12.374;2023-09-30T14:27:42;4.90;;;1.60;;
12437;SDS011;6283;51.330;12.374;2023-09-30T14:30:08;4.05;;;1.80;;
12437;SDS011;6283;51.330;12.374;2023-09-30T14:32:34;6.72;;;2.80;;
12437;SDS011;6283;51.330;12.374;2023-09-30T14:35:00;2.88;;;1.60;;
12437;SDS011;6283;51.330;12.374;2023-09-30T14:37:25;6.38;;;2.05;;
12437;SDS011;6283;51.330;12.374;2023-09-30T14:39:52;4.22;;;1.65;;
12437;SDS011;6283;51.330;12.374;2023-09-30T14:42:17;2.85;;;1.58;;
12437;SDS011;6283;51.330;12.374;2023-09-30T14:44:43;4.18;;;1.70;;
12437;SDS011;6283;51.330;12.374;2023-09-30T14:47:09;3.08;;;1.67;;
12437;SDS011;6283;51.330;12.374;2023-09-30T14:49:34;4.65;;;1.70;;
12437;SDS011;6283;51.330;12.374;2023-09-30T14:52:00;4.10;;;1.80;;
12437;SDS011;6283;51.330;12.374;2023-09-30T14:54:26;2.25;;;1.30;;
12437;SDS011;6283;51.330;12.374;2023-09-30T14:56:52;3.50;;;1.58;;
12437;SDS011;6283;51.330;12.374;2023-09-30T14:59:17;3.90;;;1.90;;
12437;SDS011;6283;51.330;12.374;2023-09-30T15:01:43;2.47;;;1.55;;
12437;SDS011;6283;51.330;12.374;2023-09-30T15:04:08;4.50;;;2.75;;
12437;SDS011;6283;51.330;12.374;2023-09-30T15:06:34;5.47;;;1.77;;
12437;SDS011;6283;51.330;12.374;2023-09-30T15:09:03;3.22;;;1.55;;
12437;SDS011;6283;51.330;12.374;2023-09-30T15:11:29;1.80;;;1.40;;